Impacts TAF Board INFO
FOR SITUATIONAL AWARENESS. NOT TO BE USED FOR FLIGHT PLANNING PURPOSES.
IDs:

KHUM - Houma/Terrebonne Arp, LA, US

Issued at 1745 UTC 18 Nov 2017
Updated at 1748 UTC 18 Nov 2017
Potential Impact None Slight Moderate High
Time1650Z 18/18Z 18/19Z 18/20Z 18/21Z 18/22Z 18/23Z 19/00Z 19/01Z 19/02Z 19/03Z 19/04Z 19/05Z 19/06Z>>
Type OBS PRVL PRVL PRVL PRVL PRVL PRVL PRVL PRVL PRVL PRVL
  [PRB30]  
PRVL
  [PRB30]  
PRVL PRVL
VIS 7 >6 >6 >6 >6 >6 >6 >6 >6 >6 >6
  [4]  
>6
  [4]  
>6 >6
CIG -- -- -- -- -- -- -- -- -- 35 30
  [8]  
70
  [40]  
-- --
Cover SCT SCT SCT SCT SCT SCT SCT SCT SCT BKN BKN
  [BKN]  
BKN
  [OVC]  
SCT SCT
FltCat VFR VFR VFR VFR VFR VFR VFR VFR VFR VFR MVFR
  [IFR]  
VFR
  [MVFR]  
VFR VFR
WX -- -- -- -- -- -- -- -- -- VCSH --
  [-SHRA]  
--
  [-SHRA]  
-- --
WDir 180 180 180 180 180 180 180 180 180 270 290
[290]
300
[300]
330 330
WSpd 10 10 10 10 10 10 10 10 10 10 10
  [10]  
11
  [11]  
12 12
WGst -- -- -- -- -- -- -- -- -- -- --
  [--]  
--
  [--]  
-- --

Raw TAF
KHUM 181745Z 1818/1918 18010KT P6SM SCT035
  FM190200 27010KT P6SM VCSH SCT008 BKN035
  FM190300 29010KT P6SM SCT008 BKN030
  PROB30 1903/1904 4SM -SHRA BKN008
  FM190400 30011KT P6SM BKN070
  PROB30 1904/1905 4SM -SHRA OVC040
  FM190500 33012KT P6SM SCT080


Raw METAR
KHUM 181650Z 18010KT 7SM SCT035 27/20 A2993
KHUM 181550Z 18012KT 7SM SCT025 BKN040 25/21 A2994
KHUM 181450Z 18010KT 7SM SCT045 25/21 A2994

METAR Board
Radar Display
Forecast Discussion

FOR SITUATIONAL AWARENESS. NOT TO BE USED FOR FLIGHT PLANNING PURPOSES.